sensor_id;sensor_type;location;lat;lon;timestamp;P1;durP1;ratioP1;P2;durP2;ratioP2
45762;SDS011;37512;52.408;13.356;2023-03-01T00:03:02;15.18;;;11.13;;
45762;SDS011;37512;52.408;13.356;2023-03-01T00:07:04;20.75;;;10.85;;
45762;SDS011;37512;52.408;13.356;2023-03-01T00:11:27;18.02;;;10.73;;
45762;SDS011;37512;52.408;13.356;2023-03-01T00:15:28;16.80;;;10.55;;
45762;SDS011;37512;52.408;13.356;2023-03-01T00:19:30;23.02;;;11.13;;
45762;SDS011;37512;52.408;13.356;2023-03-01T00:23:33;20.05;;;11.95;;
45762;SDS011;37512;52.408;13.356;2023-03-01T00:27:35;16.30;;;10.05;;
45762;SDS011;37512;52.408;13.356;2023-03-01T00:31:37;20.55;;;12.13;;
45762;SDS011;37512;52.408;13.356;2023-03-01T00:35:39;30.05;;;12.82;;
45762;SDS011;37512;52.408;13.356;2023-03-01T00:39:40;24.60;;;11.88;;
45762;SDS011;37512;52.408;13.356;2023-03-01T00:43:43;20.77;;;11.70;;
45762;SDS011;37512;52.408;13.356;2023-03-01T00:47:45;23.20;;;12.57;;
45762;SDS011;37512;52.408;13.356;2023-03-01T00:51:47;25.60;;;12.48;;
45762;SDS011;37512;52.408;13.356;2023-03-01T00:55:48;23.00;;;13.95;;
45762;SDS011;37512;52.408;13.356;2023-03-01T00:59:50;22.77;;;12.57;;
45762;SDS011;37512;52.408;13.356;2023-03-01T01:03:54;17.75;;;11.18;;
45762;SDS011;37512;52.408;13.356;2023-03-01T01:07:57;21.30;;;12.27;;
45762;SDS011;37512;52.408;13.356;2023-03-01T01:11:59;25.70;;;13.95;;
45762;SDS011;37512;52.408;13.356;2023-03-01T01:16:01;17.92;;;12.05;;
45762;SDS011;37512;52.408;13.356;2023-03-01T01:20:03;20.90;;;12.70;;
45762;SDS011;37512;52.408;13.356;2023-03-01T01:24:05;24.42;;;13.32;;
45762;SDS011;37512;52.408;13.356;2023-03-01T01:28:06;22.67;;;12.75;;
45762;SDS011;37512;52.408;13.356;2023-03-01T01:32:08;21.65;;;11.30;;
45762;SDS011;37512;52.408;13.356;2023-03-01T01:36:09;19.70;;;11.95;;
45762;SDS011;37512;52.408;13.356;2023-03-01T01:40:11;20.00;;;11.35;;
45762;SDS011;37512;52.408;13.356;2023-03-01T01:48:19;22.55;;;11.70;;
45762;SDS011;37512;52.408;13.356;2023-03-01T01:52:31;20.70;;;11.35;;
45762;SDS011;37512;52.408;13.356;2023-03-01T01:56:36;22.98;;;11.43;;
45762;SDS011;37512;52.408;13.356;2023-03-01T02:00:40;20.88;;;10.80;;
45762;SDS011;37512;52.408;13.356;2023-03-01T02:04:42;21.60;;;11.88;;
45762;SDS011;37512;52.408;13.356;2023-03-01T02:08:44;29.92;;;14.95;;
45762;SDS011;37512;52.408;13.356;2023-03-01T02:12:48;18.88;;;12.40;;
45762;SDS011;37512;52.408;13.356;2023-03-01T02:16:49;25.33;;;14.77;;
45762;SDS011;37512;52.408;13.356;2023-03-01T02:29:37;25.30;;;14.57;;
45762;SDS011;37512;52.408;13.356;2023-03-01T02:33:39;28.95;;;14.65;;
45762;SDS011;37512;52.408;13.356;2023-03-01T02:37:43;24.73;;;14.63;;
45762;SDS011;37512;52.408;13.356;2023-03-01T02:41:55;31.00;;;13.77;;
45762;SDS011;37512;52.408;13.356;2023-03-01T02:45:59;26.52;;;13.32;;
45762;SDS011;37512;52.408;13.356;2023-03-01T02:50:18;33.88;;;16.80;;
45762;SDS011;37512;52.408;13.356;2023-03-01T02:54:40;29.30;;;14.65;;
45762;SDS011;37512;52.408;13.356;2023-03-01T02:58:47;23.17;;;12.32;;
45762;SDS011;37512;52.408;13.356;2023-03-01T03:02:53;27.17;;;15.63;;
45762;SDS011;37512;52.408;13.356;2023-03-01T03:06:55;34.70;;;14.93;;
45762;SDS011;37512;52.408;13.356;2023-03-01T03:10:56;28.02;;;13.52;;
45762;SDS011;37512;52.408;13.356;2023-03-01T03:14:58;22.90;;;12.82;;
45762;SDS011;37512;52.408;13.356;2023-03-01T03:18:59;30.38;;;14.18;;
45762;SDS011;37512;52.408;13.356;2023-03-01T03:23:06;25.48;;;14.77;;
45762;SDS011;37512;52.408;13.356;2023-03-01T03:27:08;31.88;;;14.70;;
45762;SDS011;37512;52.408;13.356;2023-03-01T03:31:09;21.92;;;13.52;;
45762;SDS011;37512;52.408;13.356;2023-03-01T03:35:11;25.52;;;14.20;;
45762;SDS011;37512;52.408;13.356;2023-03-01T03:39:12;23.67;;;12.23;;
45762;SDS011;37512;52.408;13.356;2023-03-01T03:43:18;29.77;;;15.38;;
45762;SDS011;37512;52.408;13.356;2023-03-01T03:47:21;21.88;;;13.02;;
45762;SDS011;37512;52.408;13.356;2023-03-01T03:51:22;28.63;;;14.85;;
45762;SDS011;37512;52.408;13.356;2023-03-01T03:55:24;25.25;;;13.80;;
45762;SDS011;37512;52.408;13.356;2023-03-01T03:59:31;25.30;;;14.02;;
45762;SDS011;37512;52.408;13.356;2023-03-01T04:03:33;23.75;;;13.35;;
45762;SDS011;37512;52.408;13.356;2023-03-01T04:07:36;27.67;;;14.27;;
45762;SDS011;37512;52.408;13.356;2023-03-01T04:11:38;23.08;;;14.40;;
45762;SDS011;37512;52.408;13.356;2023-03-01T04:15:40;22.15;;;13.40;;
45762;SDS011;37512;52.408;13.356;2023-03-01T04:19:44;24.63;;;14.55;;
45762;SDS011;37512;52.408;13.356;2023-03-01T04:23:49;28.48;;;12.50;;
45762;SDS011;37512;52.408;13.356;2023-03-01T04:27:53;24.30;;;13.35;;
45762;SDS011;37512;52.408;13.356;2023-03-01T04:31:55;22.00;;;13.43;;
45762;SDS011;37512;52.408;13.356;2023-03-01T04:35:56;23.17;;;12.90;;
45762;SDS011;37512;52.408;13.356;2023-03-01T04:39:58;22.13;;;12.13;;
45762;SDS011;37512;52.408;13.356;2023-03-01T04:44:00;27.73;;;13.05;;
45762;SDS011;37512;52.408;13.356;2023-03-01T04:48:02;24.55;;;12.88;;
45762;SDS011;37512;52.408;13.356;2023-03-01T04:52:04;21.35;;;12.50;;
45762;SDS011;37512;52.408;13.356;2023-03-01T04:56:06;23.35;;;14.15;;
45762;SDS011;37512;52.408;13.356;2023-03-01T05:00:09;25.13;;;14.05;;
45762;SDS011;37512;52.408;13.356;2023-03-01T05:04:22;27.67;;;14.40;;
45762;SDS011;37512;52.408;13.356;2023-03-01T05:08:27;25.05;;;13.40;;
45762;SDS011;37512;52.408;13.356;2023-03-01T05:12:28;26.75;;;14.88;;
45762;SDS011;37512;52.408;13.356;2023-03-01T05:16:30;22.27;;;13.13;;
45762;SDS011;37512;52.408;13.356;2023-03-01T05:20:37;23.25;;;13.07;;
45762;SDS011;37512;52.408;13.356;2023-03-01T05:24:39;26.58;;;14.32;;
45762;SDS011;37512;52.408;13.356;2023-03-01T05:28:40;26.27;;;14.05;;
45762;SDS011;37512;52.408;13.356;2023-03-01T05:32:43;25.45;;;14.13;;
45762;SDS011;37512;52.408;13.356;2023-03-01T05:36:46;27.83;;;14.30;;
45762;SDS011;37512;52.408;13.356;2023-03-01T05:40:48;23.45;;;12.75;;
45762;SDS011;37512;52.408;13.356;2023-03-01T05:44:50;26.55;;;15.13;;
45762;SDS011;37512;52.408;13.356;2023-03-01T05:48:51;24.48;;;14.10;;
45762;SDS011;37512;52.408;13.356;2023-03-01T05:53:09;24.53;;;15.07;;
45762;SDS011;37512;52.408;13.356;2023-03-01T05:57:12;24.73;;;14.23;;
45762;SDS011;37512;52.408;13.356;2023-03-01T06:01:14;36.83;;;14.07;;
45762;SDS011;37512;52.408;13.356;2023-03-01T06:05:15;26.27;;;13.32;;
45762;SDS011;37512;52.408;13.356;2023-03-01T06:09:17;29.90;;;13.30;;
45762;SDS011;37512;52.408;13.356;2023-03-01T06:13:19;23.88;;;13.40;;
45762;SDS011;37512;52.408;13.356;2023-03-01T06:17:20;24.02;;;14.95;;
45762;SDS011;37512;52.408;13.356;2023-03-01T06:21:22;22.95;;;13.07;;
45762;SDS011;37512;52.408;13.356;2023-03-01T06:25:24;23.40;;;13.68;;
45762;SDS011;37512;52.408;13.356;2023-03-01T06:29:27;21.58;;;12.20;;
45762;SDS011;37512;52.408;13.356;2023-03-01T06:33:28;21.17;;;13.45;;
45762;SDS011;37512;52.408;13.356;2023-03-01T06:37:30;21.73;;;12.98;;
45762;SDS011;37512;52.408;13.356;2023-03-01T06:41:32;28.17;;;14.90;;
45762;SDS011;37512;52.408;13.356;2023-03-01T06:45:34;21.85;;;12.65;;
45762;SDS011;37512;52.408;13.356;2023-03-01T06:49:36;26.05;;;13.23;;
45762;SDS011;37512;52.408;13.356;2023-03-01T06:53:37;23.45;;;12.75;;
45762;SDS011;37512;52.408;13.356;2023-03-01T06:57:39;32.78;;;15.02;;
45762;SDS011;37512;52.408;13.356;2023-03-01T07:01:40;24.73;;;12.05;;
45762;SDS011;37512;52.408;13.356;2023-03-01T07:05:42;28.92;;;13.60;;
45762;SDS011;37512;52.408;13.356;2023-03-01T07:09:44;18.75;;;10.98;;
45762;SDS011;37512;52.408;13.356;2023-03-01T07:13:46;24.35;;;13.18;;
45762;SDS011;37512;52.408;13.356;2023-03-01T07:17:47;22.75;;;13.23;;
45762;SDS011;37512;52.408;13.356;2023-03-01T07:21:51;24.52;;;13.23;;
45762;SDS011;37512;52.408;13.356;2023-03-01T07:25:53;23.92;;;13.95;;
45762;SDS011;37512;52.408;13.356;2023-03-01T07:29:55;20.70;;;11.93;;
45762;SDS011;37512;52.408;13.356;2023-03-01T07:33:57;26.35;;;14.75;;
45762;SDS011;37512;52.408;13.356;2023-03-01T07:37:58;23.85;;;13.50;;
45762;SDS011;37512;52.408;13.356;2023-03-01T07:42:00;24.05;;;14.02;;
45762;SDS011;37512;52.408;13.356;2023-03-01T07:46:01;19.08;;;12.32;;
45762;SDS011;37512;52.408;13.356;2023-03-01T07:50:04;24.73;;;13.05;;
45762;SDS011;37512;52.408;13.356;2023-03-01T07:54:06;25.42;;;12.73;;
45762;SDS011;37512;52.408;13.356;2023-03-01T07:58:08;25.13;;;12.52;;
45762;SDS011;37512;52.408;13.356;2023-03-01T08:02:10;24.58;;;11.80;;
45762;SDS011;37512;52.408;13.356;2023-03-01T08:06:13;20.63;;;11.27;;
45762;SDS011;37512;52.408;13.356;2023-03-01T08:10:16;20.23;;;12.30;;
45762;SDS011;37512;52.408;13.356;2023-03-01T08:14:18;21.95;;;11.20;;
45762;SDS011;37512;52.408;13.356;2023-03-01T08:18:19;19.60;;;10.93;;
45762;SDS011;37512;52.408;13.356;2023-03-01T08:22:22;19.75;;;10.57;;
45762;SDS011;37512;52.408;13.356;2023-03-01T08:26:23;19.95;;;10.70;;
45762;SDS011;37512;52.408;13.356;2023-03-01T08:30:25;14.40;;;9.75;;
45762;SDS011;37512;52.408;13.356;2023-03-01T08:34:27;18.33;;;9.63;;
45762;SDS011;37512;52.408;13.356;2023-03-01T08:38:28;15.73;;;9.30;;
45762;SDS011;37512;52.408;13.356;2023-03-01T08:42:30;15.18;;;8.88;;
45762;SDS011;37512;52.408;13.356;2023-03-01T08:46:32;19.42;;;12.07;;
45762;SDS011;37512;52.408;13.356;2023-03-01T08:50:38;20.70;;;11.77;;
45762;SDS011;37512;52.408;13.356;2023-03-01T08:54:42;21.45;;;11.60;;
45762;SDS011;37512;52.408;13.356;2023-03-01T08:58:44;21.35;;;12.73;;
45762;SDS011;37512;52.408;13.356;2023-03-01T09:02:47;23.45;;;10.60;;
45762;SDS011;37512;52.408;13.356;2023-03-01T09:06:48;16.95;;;10.43;;
45762;SDS011;37512;52.408;13.356;2023-03-01T09:10:50;14.45;;;9.57;;
45762;SDS011;37512;52.408;13.356;2023-03-01T09:14:52;17.30;;;10.35;;
45762;SDS011;37512;52.408;13.356;2023-03-01T09:18:54;18.35;;;9.75;;
45762;SDS011;37512;52.408;13.356;2023-03-01T09:22:55;20.02;;;9.75;;
45762;SDS011;37512;52.408;13.356;2023-03-01T09:26:57;14.43;;;9.60;;
45762;SDS011;37512;52.408;13.356;2023-03-01T09:30:59;18.63;;;9.70;;
45762;SDS011;37512;52.408;13.356;2023-03-01T09:35:01;19.75;;;9.57;;
45762;SDS011;37512;52.408;13.356;2023-03-01T09:39:06;13.82;;;8.85;;
45762;SDS011;37512;52.408;13.356;2023-03-01T09:43:25;14.75;;;7.88;;
45762;SDS011;37512;52.408;13.356;2023-03-01T09:47:33;12.70;;;8.40;;
45762;SDS011;37512;52.408;13.356;2023-03-01T09:51:37;14.90;;;8.38;;
45762;SDS011;37512;52.408;13.356;2023-03-01T10:09:16;17.25;;;7.78;;
45762;SDS011;37512;52.408;13.356;2023-03-01T10:13:19;16.80;;;8.60;;
45762;SDS011;37512;52.408;13.356;2023-03-01T10:22:05;14.90;;;8.73;;
45762;SDS011;37512;52.408;13.356;2023-03-01T10:30:38;10.60;;;7.40;;
45762;SDS011;37512;52.408;13.356;2023-03-01T10:34:42;14.00;;;7.72;;
45762;SDS011;37512;52.408;13.356;2023-03-01T10:38:51;9.60;;;6.53;;
45762;SDS011;37512;52.408;13.356;2023-03-01T10:42:57;13.88;;;6.60;;
45762;SDS011;37512;52.408;13.356;2023-03-01T10:47:00;8.63;;;5.72;;
45762;SDS011;37512;52.408;13.356;2023-03-01T10:59:32;10.93;;;5.35;;
45762;SDS011;37512;52.408;13.356;2023-03-01T11:03:38;35.20;;;7.22;;
45762;SDS011;37512;52.408;13.356;2023-03-01T11:07:50;9.15;;;5.07;;
45762;SDS011;37512;52.408;13.356;2023-03-01T11:11:57;11.40;;;4.78;;
45762;SDS011;37512;52.408;13.356;2023-03-01T11:16:10;9.43;;;4.90;;
45762;SDS011;37512;52.408;13.356;2023-03-01T11:24:14;6.50;;;4.35;;
45762;SDS011;37512;52.408;13.356;2023-03-01T11:28:18;8.65;;;5.15;;
45762;SDS011;37512;52.408;13.356;2023-03-01T11:32:23;9.02;;;5.40;;
45762;SDS011;37512;52.408;13.356;2023-03-01T11:36:48;6.90;;;4.65;;
45762;SDS011;37512;52.408;13.356;2023-03-01T11:45:13;8.02;;;5.32;;
45762;SDS011;37512;52.408;13.356;2023-03-01T11:49:28;14.70;;;6.95;;
45762;SDS011;37512;52.408;13.356;2023-03-01T11:58:20;10.43;;;6.68;;
45762;SDS011;37512;52.408;13.356;2023-03-01T12:07:01;13.02;;;6.13;;
45762;SDS011;37512;52.408;13.356;2023-03-01T12:11:12;14.10;;;5.82;;
45762;SDS011;37512;52.408;13.356;2023-03-01T12:19:49;10.82;;;5.78;;
45762;SDS011;37512;52.408;13.356;2023-03-01T12:28:32;9.68;;;5.28;;
45762;SDS011;37512;52.408;13.356;2023-03-01T12:32:59;16.52;;;9.35;;
45762;SDS011;37512;52.408;13.356;2023-03-01T12:37:19;12.93;;;4.80;;
45762;SDS011;37512;52.408;13.356;2023-03-01T12:54:11;14.23;;;8.35;;
45762;SDS011;37512;52.408;13.356;2023-03-01T13:02:55;8.25;;;4.60;;
45762;SDS011;37512;52.408;13.356;2023-03-01T13:11:20;8.18;;;4.60;;
45762;SDS011;37512;52.408;13.356;2023-03-01T13:19:25;7.05;;;3.90;;
45762;SDS011;37512;52.408;13.356;2023-03-01T13:23:37;6.35;;;3.45;;
45762;SDS011;37512;52.408;13.356;2023-03-01T13:27:42;6.65;;;3.55;;
45762;SDS011;37512;52.408;13.356;2023-03-01T13:35:57;4.78;;;3.08;;
45762;SDS011;37512;52.408;13.356;2023-03-01T13:40:02;6.30;;;2.80;;
45762;SDS011;37512;52.408;13.356;2023-03-01T13:48:27;9.73;;;3.50;;
45762;SDS011;37512;52.408;13.356;2023-03-01T13:52:35;6.53;;;2.72;;
45762;SDS011;37512;52.408;13.356;2023-03-01T13:56:40;6.07;;;2.75;;
45762;SDS011;37512;52.408;13.356;2023-03-01T14:00:42;7.65;;;3.15;;
45762;SDS011;37512;52.408;13.356;2023-03-01T14:04:44;9.98;;;2.38;;
45762;SDS011;37512;52.408;13.356;2023-03-01T14:09:17;4.57;;;2.53;;
45762;SDS011;37512;52.408;13.356;2023-03-01T14:17:43;8.45;;;2.97;;
45762;SDS011;37512;52.408;13.356;2023-03-01T14:21:58;7.07;;;3.03;;
45762;SDS011;37512;52.408;13.356;2023-03-01T14:26:20;10.50;;;6.22;;
45762;SDS011;37512;52.408;13.356;2023-03-01T14:30:27;8.38;;;3.00;;
45762;SDS011;37512;52.408;13.356;2023-03-01T14:34:32;3.75;;;2.65;;
45762;SDS011;37512;52.408;13.356;2023-03-01T14:42:37;4.10;;;2.40;;
45762;SDS011;37512;52.408;13.356;2023-03-01T14:46:40;3.35;;;2.30;;
45762;SDS011;37512;52.408;13.356;2023-03-01T14:50:44;4.50;;;2.45;;
45762;SDS011;37512;52.408;13.356;2023-03-01T14:54:53;4.78;;;2.42;;
45762;SDS011;37512;52.408;13.356;2023-03-01T14:58:57;3.72;;;2.50;;
45762;SDS011;37512;52.408;13.356;2023-03-01T15:03:01;4.85;;;2.38;;
45762;SDS011;37512;52.408;13.356;2023-03-01T15:07:17;5.47;;;2.40;;
45762;SDS011;37512;52.408;13.356;2023-03-01T15:11:33;6.65;;;2.72;;
45762;SDS011;37512;52.408;13.356;2023-03-01T15:16:08;4.28;;;2.47;;
45762;SDS011;37512;52.408;13.356;2023-03-01T15:20:44;5.35;;;3.15;;
45762;SDS011;37512;52.408;13.356;2023-03-01T15:25:43;4.95;;;2.30;;
45762;SDS011;37512;52.408;13.356;2023-03-01T15:29:53;4.43;;;2.78;;
45762;SDS011;37512;52.408;13.356;2023-03-01T15:34:21;4.15;;;2.45;;
45762;SDS011;37512;52.408;13.356;2023-03-01T15:42:43;6.18;;;2.95;;
45762;SDS011;37512;52.408;13.356;2023-03-01T15:46:46;5.88;;;3.53;;
45762;SDS011;37512;52.408;13.356;2023-03-01T15:50:55;4.05;;;2.90;;
45762;SDS011;37512;52.408;13.356;2023-03-01T15:59:02;7.63;;;2.80;;
45762;SDS011;37512;52.408;13.356;2023-03-01T16:03:04;6.45;;;2.88;;
45762;SDS011;37512;52.408;13.356;2023-03-01T16:07:06;4.25;;;2.72;;
45762;SDS011;37512;52.408;13.356;2023-03-01T16:11:13;10.27;;;3.85;;
45762;SDS011;37512;52.408;13.356;2023-03-01T16:15:23;8.52;;;3.25;;
45762;SDS011;37512;52.408;13.356;2023-03-01T16:19:33;8.05;;;3.35;;
45762;SDS011;37512;52.408;13.356;2023-03-01T16:23:35;5.22;;;3.08;;
45762;SDS011;37512;52.408;13.356;2023-03-01T16:27:37;5.57;;;2.72;;
45762;SDS011;37512;52.408;13.356;2023-03-01T16:31:38;4.55;;;3.05;;
45762;SDS011;37512;52.408;13.356;2023-03-01T16:35:40;4.57;;;2.70;;
45762;SDS011;37512;52.408;13.356;2023-03-01T16:39:42;5.07;;;2.35;;
45762;SDS011;37512;52.408;13.356;2023-03-01T16:43:44;4.55;;;2.58;;
45762;SDS011;37512;52.408;13.356;2023-03-01T16:47:48;6.05;;;2.65;;
45762;SDS011;37512;52.408;13.356;2023-03-01T16:51:49;5.28;;;2.38;;
45762;SDS011;37512;52.408;13.356;2023-03-01T16:55:55;16.25;;;3.33;;
45762;SDS011;37512;52.408;13.356;2023-03-01T16:59:57;4.05;;;2.55;;
45762;SDS011;37512;52.408;13.356;2023-03-01T17:03:58;10.13;;;2.75;;
45762;SDS011;37512;52.408;13.356;2023-03-01T17:08:02;8.23;;;2.10;;
45762;SDS011;37512;52.408;13.356;2023-03-01T17:12:04;5.32;;;2.47;;
45762;SDS011;37512;52.408;13.356;2023-03-01T17:16:06;5.93;;;2.63;;
45762;SDS011;37512;52.408;13.356;2023-03-01T17:20:10;8.30;;;2.88;;
45762;SDS011;37512;52.408;13.356;2023-03-01T17:24:12;6.32;;;3.00;;
45762;SDS011;37512;52.408;13.356;2023-03-01T17:28:14;8.00;;;3.72;;
45762;SDS011;37512;52.408;13.356;2023-03-01T17:32:16;6.82;;;3.47;;
45762;SDS011;37512;52.408;13.356;2023-03-01T17:36:18;7.30;;;3.42;;
45762;SDS011;37512;52.408;13.356;2023-03-01T17:40:19;7.10;;;3.17;;
45762;SDS011;37512;52.408;13.356;2023-03-01T17:44:21;7.72;;;3.50;;
45762;SDS011;37512;52.408;13.356;2023-03-01T17:48:22;14.25;;;4.72;;
45762;SDS011;37512;52.408;13.356;2023-03-01T17:52:24;7.50;;;3.97;;
45762;SDS011;37512;52.408;13.356;2023-03-01T17:56:25;13.23;;;3.85;;
45762;SDS011;37512;52.408;13.356;2023-03-01T18:00:27;11.57;;;4.22;;
45762;SDS011;37512;52.408;13.356;2023-03-01T18:04:29;19.60;;;5.25;;
45762;SDS011;37512;52.408;13.356;2023-03-01T18:08:30;18.35;;;4.13;;
45762;SDS011;37512;52.408;13.356;2023-03-01T18:12:32;10.52;;;4.15;;
45762;SDS011;37512;52.408;13.356;2023-03-01T18:16:33;7.70;;;3.60;;
45762;SDS011;37512;52.408;13.356;2023-03-01T18:20:35;8.13;;;3.88;;
45762;SDS011;37512;52.408;13.356;2023-03-01T18:24:37;8.65;;;4.75;;
45762;SDS011;37512;52.408;13.356;2023-03-01T18:28:41;7.95;;;4.68;;
45762;SDS011;37512;52.408;13.356;2023-03-01T18:32:43;12.93;;;4.15;;
45762;SDS011;37512;52.408;13.356;2023-03-01T18:36:45;11.93;;;4.15;;
45762;SDS011;37512;52.408;13.356;2023-03-01T18:41:07;16.33;;;5.03;;
45762;SDS011;37512;52.408;13.356;2023-03-01T18:45:08;7.88;;;4.10;;
45762;SDS011;37512;52.408;13.356;2023-03-01T18:49:11;11.13;;;4.28;;
45762;SDS011;37512;52.408;13.356;2023-03-01T18:53:13;9.98;;;4.78;;
45762;SDS011;37512;52.408;13.356;2023-03-01T18:57:15;9.32;;;4.13;;
45762;SDS011;37512;52.408;13.356;2023-03-01T19:01:17;8.68;;;4.38;;
45762;SDS011;37512;52.408;13.356;2023-03-01T19:05:27;11.52;;;5.05;;
45762;SDS011;37512;52.408;13.356;2023-03-01T19:09:29;15.25;;;5.50;;
45762;SDS011;37512;52.408;13.356;2023-03-01T19:13:31;9.98;;;5.63;;
45762;SDS011;37512;52.408;13.356;2023-03-01T19:17:34;9.55;;;4.90;;
45762;SDS011;37512;52.408;13.356;2023-03-01T19:21:36;8.93;;;4.93;;
45762;SDS011;37512;52.408;13.356;2023-03-01T19:25:37;11.43;;;5.28;;
45762;SDS011;37512;52.408;13.356;2023-03-01T19:29:39;10.05;;;4.75;;
45762;SDS011;37512;52.408;13.356;2023-03-01T19:33:40;7.90;;;4.82;;
45762;SDS011;37512;52.408;13.356;2023-03-01T19:37:42;11.88;;;5.32;;
45762;SDS011;37512;52.408;13.356;2023-03-01T19:41:43;8.98;;;4.68;;
45762;SDS011;37512;52.408;13.356;2023-03-01T19:45:50;8.63;;;5.05;;
45762;SDS011;37512;52.408;13.356;2023-03-01T19:49:53;13.18;;;5.40;;
45762;SDS011;37512;52.408;13.356;2023-03-01T19:53:54;6.93;;;4.32;;
45762;SDS011;37512;52.408;13.356;2023-03-01T19:57:56;11.82;;;5.20;;
45762;SDS011;37512;52.408;13.356;2023-03-01T20:01:57;14.25;;;5.78;;
45762;SDS011;37512;52.408;13.356;2023-03-01T20:06:04;11.95;;;5.45;;
45762;SDS011;37512;52.408;13.356;2023-03-01T20:10:09;9.50;;;5.35;;
45762;SDS011;37512;52.408;13.356;2023-03-01T20:14:11;14.77;;;5.22;;
45762;SDS011;37512;52.408;13.356;2023-03-01T20:18:12;10.45;;;6.10;;
45762;SDS011;37512;52.408;13.356;2023-03-01T20:22:15;15.30;;;6.93;;
45762;SDS011;37512;52.408;13.356;2023-03-01T20:26:18;12.65;;;6.47;;
45762;SDS011;37512;52.408;13.356;2023-03-01T20:30:21;15.90;;;7.78;;
45762;SDS011;37512;52.408;13.356;2023-03-01T20:34:22;16.15;;;7.75;;
45762;SDS011;37512;52.408;13.356;2023-03-01T20:38:24;18.13;;;8.05;;
45762;SDS011;37512;52.408;13.356;2023-03-01T20:42:26;16.80;;;8.73;;
45762;SDS011;37512;52.408;13.356;2023-03-01T20:46:28;16.63;;;8.43;;
45762;SDS011;37512;52.408;13.356;2023-03-01T20:50:33;16.02;;;7.75;;
45762;SDS011;37512;52.408;13.356;2023-03-01T20:54:34;12.90;;;7.60;;
45762;SDS011;37512;52.408;13.356;2023-03-01T20:58:36;16.92;;;7.65;;
45762;SDS011;37512;52.408;13.356;2023-03-01T21:02:38;19.98;;;7.15;;
45762;SDS011;37512;52.408;13.356;2023-03-01T21:06:40;12.43;;;6.88;;
45762;SDS011;37512;52.408;13.356;2023-03-01T21:10:48;18.27;;;7.13;;
45762;SDS011;37512;52.408;13.356;2023-03-01T21:14:50;12.23;;;6.43;;
45762;SDS011;37512;52.408;13.356;2023-03-01T21:18:52;14.10;;;7.40;;
45762;SDS011;37512;52.408;13.356;2023-03-01T21:22:55;12.60;;;6.25;;
45762;SDS011;37512;52.408;13.356;2023-03-01T21:26:59;12.02;;;6.50;;
45762;SDS011;37512;52.408;13.356;2023-03-01T21:31:09;13.02;;;6.25;;
45762;SDS011;37512;52.408;13.356;2023-03-01T21:35:12;10.10;;;6.68;;
45762;SDS011;37512;52.408;13.356;2023-03-01T21:39:14;13.00;;;7.28;;
45762;SDS011;37512;52.408;13.356;2023-03-01T21:43:15;13.23;;;6.68;;
45762;SDS011;37512;52.408;13.356;2023-03-01T21:47:17;13.35;;;6.63;;
45762;SDS011;37512;52.408;13.356;2023-03-01T21:51:19;15.77;;;7.78;;
45762;SDS011;37512;52.408;13.356;2023-03-01T21:55:23;15.25;;;8.50;;
45762;SDS011;37512;52.408;13.356;2023-03-01T21:59:24;15.07;;;7.22;;
45762;SDS011;37512;52.408;13.356;2023-03-01T22:03:27;13.80;;;7.70;;
45762;SDS011;37512;52.408;13.356;2023-03-01T22:07:29;14.70;;;8.60;;
45762;SDS011;37512;52.408;13.356;2023-03-01T22:11:31;17.42;;;8.93;;
45762;SDS011;37512;52.408;13.356;2023-03-01T22:15:38;17.23;;;8.52;;
45762;SDS011;37512;52.408;13.356;2023-03-01T22:19:41;14.85;;;8.45;;
45762;SDS011;37512;52.408;13.356;2023-03-01T22:23:42;15.45;;;8.25;;
45762;SDS011;37512;52.408;13.356;2023-03-01T22:27:44;12.27;;;7.65;;
45762;SDS011;37512;52.408;13.356;2023-03-01T22:31:46;17.48;;;9.00;;
45762;SDS011;37512;52.408;13.356;2023-03-01T22:35:48;16.80;;;9.25;;
45762;SDS011;37512;52.408;13.356;2023-03-01T22:39:49;17.63;;;8.38;;
45762;SDS011;37512;52.408;13.356;2023-03-01T22:43:51;18.67;;;9.60;;
45762;SDS011;37512;52.408;13.356;2023-03-01T22:47:52;18.55;;;8.90;;
45762;SDS011;37512;52.408;13.356;2023-03-01T22:51:54;22.65;;;8.65;;
45762;SDS011;37512;52.408;13.356;2023-03-01T22:55:55;14.60;;;8.02;;
45762;SDS011;37512;52.408;13.356;2023-03-01T22:59:57;17.63;;;9.40;;
45762;SDS011;37512;52.408;13.356;2023-03-01T23:03:58;16.10;;;9.52;;
45762;SDS011;37512;52.408;13.356;2023-03-01T23:08:00;17.77;;;9.93;;
45762;SDS011;37512;52.408;13.356;2023-03-01T23:12:02;19.88;;;11.65;;
45762;SDS011;37512;52.408;13.356;2023-03-01T23:16:07;22.33;;;10.07;;
45762;SDS011;37512;52.408;13.356;2023-03-01T23:20:08;23.63;;;12.52;;
45762;SDS011;37512;52.408;13.356;2023-03-01T23:24:13;22.63;;;12.07;;
45762;SDS011;37512;52.408;13.356;2023-03-01T23:28:15;22.60;;;12.05;;
45762;SDS011;37512;52.408;13.356;2023-03-01T23:32:16;24.65;;;12.57;;
45762;SDS011;37512;52.408;13.356;2023-03-01T23:36:19;27.20;;;13.27;;
45762;SDS011;37512;52.408;13.356;2023-03-01T23:40:23;36.85;;;14.05;;
45762;SDS011;37512;52.408;13.356;2023-03-01T23:44:25;24.02;;;13.07;;
45762;SDS011;37512;52.408;13.356;2023-03-01T23:48:27;24.42;;;13.88;;
45762;SDS011;37512;52.408;13.356;2023-03-01T23:52:28;28.65;;;14.60;;
45762;SDS011;37512;52.408;13.356;2023-03-01T23:56:37;26.63;;;14.02;;
